sensor_id;sensor_type;location;lat;lon;timestamp;P1;durP1;ratioP1;P2;durP2;ratioP2
62941;SDS011;49042;47.318;19.874;2023-03-03T00:01:50;31.52;;;16.45;;
62941;SDS011;49042;47.318;19.874;2023-03-03T00:04:52;34.70;;;17.75;;
62941;SDS011;49042;47.318;19.874;2023-03-03T00:07:53;33.67;;;15.95;;
62941;SDS011;49042;47.318;19.874;2023-03-03T00:10:55;38.03;;;20.20;;
62941;SDS011;49042;47.318;19.874;2023-03-03T00:13:57;42.62;;;20.25;;
62941;SDS011;49042;47.318;19.874;2023-03-03T00:17:01;35.95;;;17.27;;
62941;SDS011;49042;47.318;19.874;2023-03-03T00:26:35;31.45;;;15.88;;
62941;SDS011;49042;47.318;19.874;2023-03-03T00:29:44;29.45;;;16.08;;
62941;SDS011;49042;47.318;19.874;2023-03-03T00:32:48;36.97;;;15.85;;
62941;SDS011;49042;47.318;19.874;2023-03-03T00:35:56;31.00;;;14.80;;
62941;SDS011;49042;47.318;19.874;2023-03-03T00:42:34;32.78;;;16.10;;
62941;SDS011;49042;47.318;19.874;2023-03-03T00:45:42;31.42;;;14.90;;
62941;SDS011;49042;47.318;19.874;2023-03-03T00:48:46;35.78;;;16.05;;
62941;SDS011;49042;47.318;19.874;2023-03-03T00:51:49;31.87;;;16.15;;
62941;SDS011;49042;47.318;19.874;2023-03-03T00:54:51;26.40;;;14.13;;
62941;SDS011;49042;47.318;19.874;2023-03-03T00:57:52;28.55;;;14.90;;
62941;SDS011;49042;47.318;19.874;2023-03-03T01:00:54;28.98;;;14.63;;
62941;SDS011;49042;47.318;19.874;2023-03-03T01:03:59;36.95;;;15.02;;
62941;SDS011;49042;47.318;19.874;2023-03-03T01:07:01;26.77;;;15.45;;
62941;SDS011;49042;47.318;19.874;2023-03-03T01:10:03;34.65;;;15.30;;
62941;SDS011;49042;47.318;19.874;2023-03-03T01:13:05;27.08;;;14.30;;
62941;SDS011;49042;47.318;19.874;2023-03-03T01:16:07;49.33;;;14.63;;
62941;SDS011;49042;47.318;19.874;2023-03-03T01:19:09;28.23;;;14.20;;
62941;SDS011;49042;47.318;19.874;2023-03-03T01:22:11;30.50;;;13.60;;
62941;SDS011;49042;47.318;19.874;2023-03-03T01:25:13;27.95;;;14.75;;
62941;SDS011;49042;47.318;19.874;2023-03-03T01:28:14;27.48;;;14.63;;
62941;SDS011;49042;47.318;19.874;2023-03-03T01:31:16;28.33;;;14.35;;
62941;SDS011;49042;47.318;19.874;2023-03-03T01:34:18;23.98;;;13.62;;
62941;SDS011;49042;47.318;19.874;2023-03-03T01:37:19;29.75;;;14.80;;
62941;SDS011;49042;47.318;19.874;2023-03-03T01:40:22;29.70;;;14.75;;
62941;SDS011;49042;47.318;19.874;2023-03-03T01:43:30;27.13;;;14.00;;
62941;SDS011;49042;47.318;19.874;2023-03-03T01:49:55;28.45;;;15.32;;
62941;SDS011;49042;47.318;19.874;2023-03-03T01:53:04;29.45;;;15.15;;
62941;SDS011;49042;47.318;19.874;2023-03-03T01:56:11;24.65;;;14.43;;
62941;SDS011;49042;47.318;19.874;2023-03-03T01:59:23;25.25;;;14.38;;
62941;SDS011;49042;47.318;19.874;2023-03-03T02:02:28;29.17;;;15.27;;
62941;SDS011;49042;47.318;19.874;2023-03-03T02:05:30;28.77;;;14.50;;
62941;SDS011;49042;47.318;19.874;2023-03-03T02:12:01;37.47;;;19.10;;
62941;SDS011;49042;47.318;19.874;2023-03-03T02:15:28;39.30;;;20.50;;
62941;SDS011;49042;47.318;19.874;2023-03-03T02:18:32;30.48;;;16.35;;
62941;SDS011;49042;47.318;19.874;2023-03-03T02:21:34;28.02;;;15.20;;
62941;SDS011;49042;47.318;19.874;2023-03-03T02:27:37;28.15;;;15.38;;
62941;SDS011;49042;47.318;19.874;2023-03-03T02:30:39;30.60;;;15.02;;
62941;SDS011;49042;47.318;19.874;2023-03-03T02:33:41;29.02;;;15.35;;
62941;SDS011;49042;47.318;19.874;2023-03-03T02:36:44;35.72;;;15.25;;
62941;SDS011;49042;47.318;19.874;2023-03-03T02:39:46;28.50;;;14.27;;
62941;SDS011;49042;47.318;19.874;2023-03-03T02:42:48;28.90;;;15.15;;
62941;SDS011;49042;47.318;19.874;2023-03-03T02:45:53;29.20;;;14.48;;
62941;SDS011;49042;47.318;19.874;2023-03-03T02:48:55;28.85;;;15.93;;
62941;SDS011;49042;47.318;19.874;2023-03-03T02:51:57;29.30;;;15.30;;
62941;SDS011;49042;47.318;19.874;2023-03-03T02:55:01;27.85;;;15.73;;
62941;SDS011;49042;47.318;19.874;2023-03-03T02:58:03;26.95;;;14.93;;
62941;SDS011;49042;47.318;19.874;2023-03-03T03:01:04;28.87;;;15.23;;
62941;SDS011;49042;47.318;19.874;2023-03-03T03:04:13;28.85;;;15.45;;
62941;SDS011;49042;47.318;19.874;2023-03-03T03:07:16;28.12;;;14.52;;
62941;SDS011;49042;47.318;19.874;2023-03-03T03:10:18;35.85;;;15.65;;
62941;SDS011;49042;47.318;19.874;2023-03-03T03:13:20;25.65;;;14.75;;
62941;SDS011;49042;47.318;19.874;2023-03-03T03:16:21;29.33;;;15.50;;
62941;SDS011;49042;47.318;19.874;2023-03-03T03:19:23;23.15;;;14.02;;
62941;SDS011;49042;47.318;19.874;2023-03-03T03:22:25;28.98;;;16.37;;
62941;SDS011;49042;47.318;19.874;2023-03-03T03:25:26;31.02;;;15.18;;
62941;SDS011;49042;47.318;19.874;2023-03-03T03:28:28;27.10;;;15.75;;
62941;SDS011;49042;47.318;19.874;2023-03-03T03:31:30;33.67;;;16.50;;
62941;SDS011;49042;47.318;19.874;2023-03-03T03:34:32;32.10;;;16.33;;
62941;SDS011;49042;47.318;19.874;2023-03-03T03:37:33;27.60;;;14.48;;
62941;SDS011;49042;47.318;19.874;2023-03-03T03:40:35;29.63;;;14.82;;
62941;SDS011;49042;47.318;19.874;2023-03-03T03:43:37;33.33;;;16.42;;
62941;SDS011;49042;47.318;19.874;2023-03-03T03:46:38;37.85;;;16.25;;
62941;SDS011;49042;47.318;19.874;2023-03-03T03:49:40;32.47;;;17.50;;
62941;SDS011;49042;47.318;19.874;2023-03-03T03:52:42;32.78;;;17.42;;
62941;SDS011;49042;47.318;19.874;2023-03-03T03:55:44;28.05;;;16.50;;
62941;SDS011;49042;47.318;19.874;2023-03-03T03:58:46;29.90;;;16.52;;
62941;SDS011;49042;47.318;19.874;2023-03-03T04:01:48;28.30;;;15.43;;
62941;SDS011;49042;47.318;19.874;2023-03-03T04:04:50;32.35;;;16.80;;
62941;SDS011;49042;47.318;19.874;2023-03-03T04:07:52;38.63;;;17.77;;
62941;SDS011;49042;47.318;19.874;2023-03-03T04:10:53;35.42;;;19.42;;
62941;SDS011;49042;47.318;19.874;2023-03-03T04:13:55;33.25;;;17.80;;
62941;SDS011;49042;47.318;19.874;2023-03-03T04:16:57;35.83;;;21.27;;
62941;SDS011;49042;47.318;19.874;2023-03-03T04:19:59;37.03;;;19.70;;
62941;SDS011;49042;47.318;19.874;2023-03-03T04:23:00;28.42;;;16.48;;
62941;SDS011;49042;47.318;19.874;2023-03-03T04:26:02;30.95;;;16.30;;
62941;SDS011;49042;47.318;19.874;2023-03-03T04:29:04;28.23;;;15.38;;
62941;SDS011;49042;47.318;19.874;2023-03-03T04:32:06;28.35;;;15.20;;
62941;SDS011;49042;47.318;19.874;2023-03-03T04:35:09;24.70;;;14.87;;
62941;SDS011;49042;47.318;19.874;2023-03-03T04:38:11;28.23;;;15.48;;
62941;SDS011;49042;47.318;19.874;2023-03-03T04:41:12;27.55;;;16.00;;
62941;SDS011;49042;47.318;19.874;2023-03-03T04:44:14;25.33;;;14.07;;
62941;SDS011;49042;47.318;19.874;2023-03-03T04:47:16;27.77;;;16.05;;
62941;SDS011;49042;47.318;19.874;2023-03-03T04:50:18;34.22;;;17.00;;
62941;SDS011;49042;47.318;19.874;2023-03-03T04:53:21;28.87;;;16.35;;
62941;SDS011;49042;47.318;19.874;2023-03-03T04:56:23;29.65;;;17.15;;
62941;SDS011;49042;47.318;19.874;2023-03-03T04:59:25;30.02;;;17.33;;
62941;SDS011;49042;47.318;19.874;2023-03-03T05:02:26;28.73;;;17.17;;
62941;SDS011;49042;47.318;19.874;2023-03-03T05:05:28;31.77;;;16.85;;
62941;SDS011;49042;47.318;19.874;2023-03-03T05:08:29;32.80;;;17.83;;
62941;SDS011;49042;47.318;19.874;2023-03-03T05:11:31;30.33;;;17.58;;
62941;SDS011;49042;47.318;19.874;2023-03-03T05:14:33;31.33;;;16.90;;
62941;SDS011;49042;47.318;19.874;2023-03-03T05:17:35;27.08;;;15.68;;
62941;SDS011;49042;47.318;19.874;2023-03-03T05:20:38;32.30;;;18.12;;
62941;SDS011;49042;47.318;19.874;2023-03-03T05:23:42;34.50;;;18.05;;
62941;SDS011;49042;47.318;19.874;2023-03-03T05:26:44;29.83;;;17.25;;
62941;SDS011;49042;47.318;19.874;2023-03-03T05:29:45;35.35;;;17.92;;
62941;SDS011;49042;47.318;19.874;2023-03-03T05:32:47;29.95;;;16.60;;
62941;SDS011;49042;47.318;19.874;2023-03-03T05:35:53;37.42;;;19.67;;
62941;SDS011;49042;47.318;19.874;2023-03-03T05:38:56;45.42;;;21.00;;
62941;SDS011;49042;47.318;19.874;2023-03-03T05:41:58;57.10;;;27.25;;
62941;SDS011;49042;47.318;19.874;2023-03-03T05:45:00;49.88;;;25.58;;
62941;SDS011;49042;47.318;19.874;2023-03-03T05:48:02;49.25;;;24.95;;
62941;SDS011;49042;47.318;19.874;2023-03-03T05:51:05;83.53;;;35.55;;
62941;SDS011;49042;47.318;19.874;2023-03-03T05:54:06;191.35;;;73.47;;
62941;SDS011;49042;47.318;19.874;2023-03-03T05:57:08;149.45;;;60.90;;
62941;SDS011;49042;47.318;19.874;2023-03-03T06:00:10;62.55;;;29.52;;
62941;SDS011;49042;47.318;19.874;2023-03-03T06:03:13;115.82;;;45.30;;
62941;SDS011;49042;47.318;19.874;2023-03-03T06:06:15;54.13;;;26.75;;
62941;SDS011;49042;47.318;19.874;2023-03-03T06:09:17;42.13;;;23.52;;
62941;SDS011;49042;47.318;19.874;2023-03-03T06:12:19;45.15;;;22.67;;
62941;SDS011;49042;47.318;19.874;2023-03-03T06:15:22;50.22;;;22.25;;
62941;SDS011;49042;47.318;19.874;2023-03-03T06:18:23;43.65;;;22.00;;
62941;SDS011;49042;47.318;19.874;2023-03-03T06:21:25;58.10;;;27.05;;
62941;SDS011;49042;47.318;19.874;2023-03-03T06:24:27;40.83;;;22.13;;
62941;SDS011;49042;47.318;19.874;2023-03-03T06:27:30;36.83;;;21.15;;
62941;SDS011;49042;47.318;19.874;2023-03-03T06:30:32;36.67;;;19.95;;
62941;SDS011;49042;47.318;19.874;2023-03-03T06:33:34;35.97;;;19.00;;
62941;SDS011;49042;47.318;19.874;2023-03-03T06:36:36;37.15;;;18.85;;
62941;SDS011;49042;47.318;19.874;2023-03-03T06:39:37;40.55;;;22.08;;
62941;SDS011;49042;47.318;19.874;2023-03-03T06:42:39;41.05;;;22.58;;
62941;SDS011;49042;47.318;19.874;2023-03-03T06:45:41;42.83;;;21.77;;
62941;SDS011;49042;47.318;19.874;2023-03-03T06:48:43;40.00;;;22.83;;
62941;SDS011;49042;47.318;19.874;2023-03-03T06:51:45;42.25;;;24.70;;
62941;SDS011;49042;47.318;19.874;2023-03-03T06:54:47;41.10;;;22.23;;
62941;SDS011;49042;47.318;19.874;2023-03-03T06:57:49;41.05;;;22.90;;
62941;SDS011;49042;47.318;19.874;2023-03-03T07:00:55;33.60;;;18.85;;
62941;SDS011;49042;47.318;19.874;2023-03-03T07:03:59;32.70;;;17.75;;
62941;SDS011;49042;47.318;19.874;2023-03-03T07:07:10;32.83;;;18.73;;
62941;SDS011;49042;47.318;19.874;2023-03-03T07:10:19;34.20;;;18.62;;
62941;SDS011;49042;47.318;19.874;2023-03-03T07:13:25;33.17;;;17.95;;
62941;SDS011;49042;47.318;19.874;2023-03-03T07:16:28;30.88;;;16.80;;
62941;SDS011;49042;47.318;19.874;2023-03-03T07:19:34;36.17;;;17.17;;
62941;SDS011;49042;47.318;19.874;2023-03-03T07:22:36;30.37;;;17.10;;
62941;SDS011;49042;47.318;19.874;2023-03-03T07:25:38;27.48;;;17.45;;
62941;SDS011;49042;47.318;19.874;2023-03-03T07:28:41;31.62;;;17.33;;
62941;SDS011;49042;47.318;19.874;2023-03-03T07:31:45;26.27;;;16.52;;
62941;SDS011;49042;47.318;19.874;2023-03-03T07:34:48;23.10;;;14.63;;
62941;SDS011;49042;47.318;19.874;2023-03-03T07:37:52;26.98;;;14.95;;
62941;SDS011;49042;47.318;19.874;2023-03-03T07:40:55;26.12;;;13.90;;
62941;SDS011;49042;47.318;19.874;2023-03-03T07:44:03;27.52;;;13.80;;
62941;SDS011;49042;47.318;19.874;2023-03-03T07:50:19;25.30;;;13.93;;
62941;SDS011;49042;47.318;19.874;2023-03-03T07:53:27;20.83;;;13.40;;
62941;SDS011;49042;47.318;19.874;2023-03-03T07:56:35;27.05;;;13.50;;
62941;SDS011;49042;47.318;19.874;2023-03-03T07:59:37;23.83;;;13.70;;
62941;SDS011;49042;47.318;19.874;2023-03-03T08:03:07;19.02;;;12.55;;
62941;SDS011;49042;47.318;19.874;2023-03-03T08:09:46;21.87;;;12.55;;
62941;SDS011;49042;47.318;19.874;2023-03-03T08:12:54;19.98;;;12.23;;
62941;SDS011;49042;47.318;19.874;2023-03-03T08:16:17;21.52;;;12.90;;
62941;SDS011;49042;47.318;19.874;2023-03-03T08:19:27;21.50;;;11.88;;
62941;SDS011;49042;47.318;19.874;2023-03-03T08:22:34;19.35;;;11.40;;
62941;SDS011;49042;47.318;19.874;2023-03-03T08:25:36;18.87;;;11.57;;
62941;SDS011;49042;47.318;19.874;2023-03-03T08:28:38;18.15;;;11.23;;
62941;SDS011;49042;47.318;19.874;2023-03-03T08:31:40;23.50;;;11.12;;
62941;SDS011;49042;47.318;19.874;2023-03-03T08:34:42;17.08;;;10.60;;
62941;SDS011;49042;47.318;19.874;2023-03-03T08:37:44;17.95;;;11.05;;
62941;SDS011;49042;47.318;19.874;2023-03-03T08:40:46;15.70;;;9.77;;
62941;SDS011;49042;47.318;19.874;2023-03-03T08:43:48;17.55;;;10.63;;
62941;SDS011;49042;47.318;19.874;2023-03-03T08:46:50;17.75;;;10.55;;
62941;SDS011;49042;47.318;19.874;2023-03-03T08:49:52;19.92;;;10.00;;
62941;SDS011;49042;47.318;19.874;2023-03-03T08:52:55;19.75;;;11.57;;
62941;SDS011;49042;47.318;19.874;2023-03-03T08:55:57;18.17;;;11.05;;
62941;SDS011;49042;47.318;19.874;2023-03-03T08:58:58;19.67;;;10.70;;
62941;SDS011;49042;47.318;19.874;2023-03-03T09:02:03;17.87;;;10.05;;
62941;SDS011;49042;47.318;19.874;2023-03-03T09:05:07;15.38;;;10.25;;
62941;SDS011;49042;47.318;19.874;2023-03-03T09:08:09;17.02;;;10.40;;
62941;SDS011;49042;47.318;19.874;2023-03-03T09:11:11;21.67;;;11.77;;
62941;SDS011;49042;47.318;19.874;2023-03-03T09:14:15;18.95;;;11.32;;
62941;SDS011;49042;47.318;19.874;2023-03-03T09:17:29;16.20;;;10.55;;
62941;SDS011;49042;47.318;19.874;2023-03-03T09:20:35;18.92;;;11.52;;
62941;SDS011;49042;47.318;19.874;2023-03-03T09:23:42;17.75;;;11.25;;
62941;SDS011;49042;47.318;19.874;2023-03-03T09:26:51;16.25;;;11.35;;
62941;SDS011;49042;47.318;19.874;2023-03-03T09:29:56;20.85;;;11.85;;
62941;SDS011;49042;47.318;19.874;2023-03-03T09:33:15;15.25;;;10.38;;
62941;SDS011;49042;47.318;19.874;2023-03-03T09:39:28;17.92;;;10.15;;
62941;SDS011;49042;47.318;19.874;2023-03-03T09:49:08;19.02;;;12.18;;
62941;SDS011;49042;47.318;19.874;2023-03-03T09:52:41;17.30;;;10.65;;
62941;SDS011;49042;47.318;19.874;2023-03-03T10:06:10;21.50;;;13.20;;
62941;SDS011;49042;47.318;19.874;2023-03-03T10:19:20;17.05;;;11.12;;
62941;SDS011;49042;47.318;19.874;2023-03-03T10:32:36;32.17;;;16.80;;
62941;SDS011;49042;47.318;19.874;2023-03-03T11:02:19;17.37;;;9.85;;
62941;SDS011;49042;47.318;19.874;2023-03-03T11:05:28;18.70;;;10.43;;
62941;SDS011;49042;47.318;19.874;2023-03-03T11:18:48;19.48;;;10.30;;
62941;SDS011;49042;47.318;19.874;2023-03-03T11:22:15;17.12;;;9.18;;
62941;SDS011;49042;47.318;19.874;2023-03-03T11:25:39;13.85;;;8.88;;
62941;SDS011;49042;47.318;19.874;2023-03-03T11:36:08;12.88;;;7.90;;
62941;SDS011;49042;47.318;19.874;2023-03-03T11:38:53;18.33;;;8.87;;
62941;SDS011;49042;47.318;19.874;2023-03-03T11:45:24;21.12;;;8.38;;
62941;SDS011;49042;47.318;19.874;2023-03-03T11:55:26;10.07;;;6.78;;
62941;SDS011;49042;47.318;19.874;2023-03-03T11:58:38;13.35;;;6.85;;
62941;SDS011;49042;47.318;19.874;2023-03-03T12:01:56;15.63;;;6.80;;
62941;SDS011;49042;47.318;19.874;2023-03-03T12:05:25;12.80;;;6.70;;
62941;SDS011;49042;47.318;19.874;2023-03-03T12:12:10;14.35;;;7.78;;
62941;SDS011;49042;47.318;19.874;2023-03-03T12:21:59;13.10;;;7.07;;
62941;SDS011;49042;47.318;19.874;2023-03-03T12:49:00;14.35;;;7.57;;
62941;SDS011;49042;47.318;19.874;2023-03-03T13:05:22;15.43;;;7.97;;
62941;SDS011;49042;47.318;19.874;2023-03-03T13:08:42;11.20;;;7.10;;
62941;SDS011;49042;47.318;19.874;2023-03-03T13:15:30;20.17;;;9.27;;
62941;SDS011;49042;47.318;19.874;2023-03-03T13:18:54;15.82;;;7.55;;
62941;SDS011;49042;47.318;19.874;2023-03-03T13:28:39;12.55;;;6.70;;
62941;SDS011;49042;47.318;19.874;2023-03-03T13:31:58;12.37;;;7.55;;
62941;SDS011;49042;47.318;19.874;2023-03-03T13:41:50;21.90;;;9.57;;
62941;SDS011;49042;47.318;19.874;2023-03-03T13:45:00;16.50;;;7.50;;
62941;SDS011;49042;47.318;19.874;2023-03-03T13:48:14;12.95;;;7.62;;
62941;SDS011;49042;47.318;19.874;2023-03-03T13:54:56;24.20;;;8.30;;
62941;SDS011;49042;47.318;19.874;2023-03-03T14:05:01;36.08;;;16.92;;
62941;SDS011;49042;47.318;19.874;2023-03-03T14:08:28;19.23;;;9.50;;
62941;SDS011;49042;47.318;19.874;2023-03-03T14:11:34;41.55;;;19.80;;
62941;SDS011;49042;47.318;19.874;2023-03-03T14:20:54;13.48;;;8.18;;
62941;SDS011;49042;47.318;19.874;2023-03-03T14:27:57;20.20;;;12.27;;
62941;SDS011;49042;47.318;19.874;2023-03-03T14:30:41;15.57;;;7.32;;
62941;SDS011;49042;47.318;19.874;2023-03-03T14:33:45;16.00;;;8.57;;
62941;SDS011;49042;47.318;19.874;2023-03-03T14:37:18;22.40;;;9.23;;
62941;SDS011;49042;47.318;19.874;2023-03-03T14:40:31;14.00;;;8.30;;
62941;SDS011;49042;47.318;19.874;2023-03-03T14:43:35;16.50;;;9.07;;
62941;SDS011;49042;47.318;19.874;2023-03-03T14:46:38;16.02;;;9.00;;
62941;SDS011;49042;47.318;19.874;2023-03-03T14:49:42;15.27;;;8.43;;
62941;SDS011;49042;47.318;19.874;2023-03-03T14:52:43;23.00;;;9.13;;
62941;SDS011;49042;47.318;19.874;2023-03-03T14:59:25;15.80;;;9.05;;
62941;SDS011;49042;47.318;19.874;2023-03-03T15:02:30;16.42;;;8.60;;
62941;SDS011;49042;47.318;19.874;2023-03-03T15:05:52;16.33;;;8.93;;
62941;SDS011;49042;47.318;19.874;2023-03-03T15:08:56;16.10;;;9.45;;
62941;SDS011;49042;47.318;19.874;2023-03-03T15:32:59;20.67;;;12.10;;
62941;SDS011;49042;47.318;19.874;2023-03-03T15:36:29;16.33;;;10.48;;
62941;SDS011;49042;47.318;19.874;2023-03-03T15:43:30;20.25;;;9.48;;
62941;SDS011;49042;47.318;19.874;2023-03-03T15:57:00;13.48;;;8.10;;
62941;SDS011;49042;47.318;19.874;2023-03-03T16:03:38;17.48;;;8.73;;
62941;SDS011;49042;47.318;19.874;2023-03-03T16:13:47;16.12;;;9.48;;
62941;SDS011;49042;47.318;19.874;2023-03-03T16:20:39;15.52;;;8.00;;
62941;SDS011;49042;47.318;19.874;2023-03-03T16:23:55;15.90;;;8.73;;
62941;SDS011;49042;47.318;19.874;2023-03-03T16:27:20;15.88;;;7.90;;
62941;SDS011;49042;47.318;19.874;2023-03-03T16:30:57;14.95;;;8.30;;
62941;SDS011;49042;47.318;19.874;2023-03-03T16:37:31;19.30;;;8.65;;
62941;SDS011;49042;47.318;19.874;2023-03-03T16:40:36;15.10;;;9.02;;
62941;SDS011;49042;47.318;19.874;2023-03-03T16:50:37;18.10;;;8.95;;
62941;SDS011;49042;47.318;19.874;2023-03-03T17:01:11;18.67;;;9.57;;
62941;SDS011;49042;47.318;19.874;2023-03-03T17:11:22;16.48;;;8.65;;
62941;SDS011;49042;47.318;19.874;2023-03-03T17:14:50;17.92;;;9.60;;
62941;SDS011;49042;47.318;19.874;2023-03-03T17:27:59;16.90;;;9.68;;
62941;SDS011;49042;47.318;19.874;2023-03-03T17:34:36;17.20;;;9.80;;
62941;SDS011;49042;47.318;19.874;2023-03-03T17:45:12;23.70;;;11.02;;
62941;SDS011;49042;47.318;19.874;2023-03-03T17:48:22;14.55;;;9.73;;
62941;SDS011;49042;47.318;19.874;2023-03-03T18:11:28;30.88;;;14.73;;
62941;SDS011;49042;47.318;19.874;2023-03-03T18:14:39;34.80;;;13.75;;
62941;SDS011;49042;47.318;19.874;2023-03-03T18:31:00;26.00;;;13.48;;
62941;SDS011;49042;47.318;19.874;2023-03-03T18:40:47;29.33;;;14.43;;
62941;SDS011;49042;47.318;19.874;2023-03-03T18:43:54;27.80;;;13.30;;
62941;SDS011;49042;47.318;19.874;2023-03-03T18:47:18;29.30;;;14.38;;
62941;SDS011;49042;47.318;19.874;2023-03-03T18:50:41;46.55;;;22.95;;
62941;SDS011;49042;47.318;19.874;2023-03-03T18:57:18;32.90;;;18.45;;
62941;SDS011;49042;47.318;19.874;2023-03-03T19:00:22;32.67;;;15.50;;
62941;SDS011;49042;47.318;19.874;2023-03-03T19:03:33;29.92;;;16.30;;
62941;SDS011;49042;47.318;19.874;2023-03-03T19:09:53;33.75;;;19.27;;
62941;SDS011;49042;47.318;19.874;2023-03-03T19:12:59;35.40;;;20.33;;
62941;SDS011;49042;47.318;19.874;2023-03-03T19:19:07;45.12;;;20.85;;
62941;SDS011;49042;47.318;19.874;2023-03-03T19:22:20;42.88;;;22.42;;
62941;SDS011;49042;47.318;19.874;2023-03-03T19:25:27;44.97;;;20.20;;
62941;SDS011;49042;47.318;19.874;2023-03-03T19:28:40;36.03;;;21.08;;
62941;SDS011;49042;47.318;19.874;2023-03-03T19:35:29;42.30;;;24.42;;
62941;SDS011;49042;47.318;19.874;2023-03-03T19:39:29;43.15;;;23.02;;
62941;SDS011;49042;47.318;19.874;2023-03-03T19:42:24;44.55;;;24.08;;
62941;SDS011;49042;47.318;19.874;2023-03-03T19:55:25;56.53;;;30.37;;
62941;SDS011;49042;47.318;19.874;2023-03-03T20:01:47;54.45;;;27.45;;
62941;SDS011;49042;47.318;19.874;2023-03-03T20:05:01;46.30;;;25.30;;
62941;SDS011;49042;47.318;19.874;2023-03-03T20:14:47;48.10;;;26.05;;
62941;SDS011;49042;47.318;19.874;2023-03-03T20:21:12;53.47;;;26.73;;
62941;SDS011;49042;47.318;19.874;2023-03-03T20:25:26;52.15;;;26.60;;
62941;SDS011;49042;47.318;19.874;2023-03-03T20:34:54;57.05;;;28.77;;
62941;SDS011;49042;47.318;19.874;2023-03-03T20:41:14;80.47;;;37.10;;
62941;SDS011;49042;47.318;19.874;2023-03-03T20:51:09;61.92;;;30.83;;
62941;SDS011;49042;47.318;19.874;2023-03-03T20:54:23;55.83;;;29.00;;
62941;SDS011;49042;47.318;19.874;2023-03-03T20:57:42;62.30;;;29.15;;
62941;SDS011;49042;47.318;19.874;2023-03-03T21:04:22;60.70;;;29.58;;
62941;SDS011;49042;47.318;19.874;2023-03-03T21:07:26;64.22;;;29.77;;
62941;SDS011;49042;47.318;19.874;2023-03-03T21:10:35;67.62;;;30.48;;
62941;SDS011;49042;47.318;19.874;2023-03-03T21:13:43;63.85;;;30.05;;
62941;SDS011;49042;47.318;19.874;2023-03-03T21:16:53;53.87;;;28.98;;
62941;SDS011;49042;47.318;19.874;2023-03-03T21:23:38;60.45;;;29.05;;
62941;SDS011;49042;47.318;19.874;2023-03-03T21:29:48;61.78;;;30.90;;
62941;SDS011;49042;47.318;19.874;2023-03-03T21:33:02;63.00;;;29.67;;
62941;SDS011;49042;47.318;19.874;2023-03-03T21:36:04;64.40;;;30.17;;
62941;SDS011;49042;47.318;19.874;2023-03-03T21:39:28;69.10;;;31.70;;
62941;SDS011;49042;47.318;19.874;2023-03-03T21:42:39;64.37;;;31.52;;
62941;SDS011;49042;47.318;19.874;2023-03-03T21:45:43;58.72;;;29.87;;
62941;SDS011;49042;47.318;19.874;2023-03-03T21:48:46;60.83;;;30.27;;
62941;SDS011;49042;47.318;19.874;2023-03-03T21:51:48;68.10;;;31.62;;
62941;SDS011;49042;47.318;19.874;2023-03-03T21:54:50;69.20;;;33.08;;
62941;SDS011;49042;47.318;19.874;2023-03-03T21:57:52;70.55;;;32.38;;
62941;SDS011;49042;47.318;19.874;2023-03-03T22:00:53;68.35;;;32.22;;
62941;SDS011;49042;47.318;19.874;2023-03-03T22:03:55;64.72;;;31.83;;
62941;SDS011;49042;47.318;19.874;2023-03-03T22:06:57;67.75;;;31.83;;
62941;SDS011;49042;47.318;19.874;2023-03-03T22:09:59;68.43;;;32.10;;
62941;SDS011;49042;47.318;19.874;2023-03-03T22:13:00;67.80;;;30.62;;
62941;SDS011;49042;47.318;19.874;2023-03-03T22:16:02;67.25;;;30.08;;
62941;SDS011;49042;47.318;19.874;2023-03-03T22:19:04;58.40;;;30.02;;
62941;SDS011;49042;47.318;19.874;2023-03-03T22:22:09;61.95;;;29.65;;
62941;SDS011;49042;47.318;19.874;2023-03-03T22:25:11;60.03;;;29.90;;
62941;SDS011;49042;47.318;19.874;2023-03-03T22:28:12;63.78;;;29.83;;
62941;SDS011;49042;47.318;19.874;2023-03-03T22:31:14;65.87;;;31.23;;
62941;SDS011;49042;47.318;19.874;2023-03-03T22:34:17;66.65;;;31.15;;
62941;SDS011;49042;47.318;19.874;2023-03-03T22:37:19;64.22;;;30.15;;
62941;SDS011;49042;47.318;19.874;2023-03-03T22:40:20;64.43;;;30.08;;
62941;SDS011;49042;47.318;19.874;2023-03-03T22:43:22;69.68;;;31.12;;
62941;SDS011;49042;47.318;19.874;2023-03-03T22:46:25;65.28;;;30.12;;
62941;SDS011;49042;47.318;19.874;2023-03-03T22:49:27;60.58;;;28.92;;
62941;SDS011;49042;47.318;19.874;2023-03-03T22:52:29;64.70;;;30.65;;
62941;SDS011;49042;47.318;19.874;2023-03-03T22:55:31;60.42;;;29.50;;
62941;SDS011;49042;47.318;19.874;2023-03-03T22:58:37;65.50;;;30.17;;
62941;SDS011;49042;47.318;19.874;2023-03-03T23:01:39;57.20;;;29.02;;
62941;SDS011;49042;47.318;19.874;2023-03-03T23:04:40;65.25;;;29.95;;
62941;SDS011;49042;47.318;19.874;2023-03-03T23:07:42;61.47;;;30.33;;
62941;SDS011;49042;47.318;19.874;2023-03-03T23:10:44;60.92;;;30.52;;
62941;SDS011;49042;47.318;19.874;2023-03-03T23:13:46;59.00;;;29.35;;
62941;SDS011;49042;47.318;19.874;2023-03-03T23:16:48;64.07;;;29.42;;
62941;SDS011;49042;47.318;19.874;2023-03-03T23:19:49;64.90;;;29.27;;
62941;SDS011;49042;47.318;19.874;2023-03-03T23:22:51;60.00;;;28.58;;
62941;SDS011;49042;47.318;19.874;2023-03-03T23:25:54;51.95;;;25.35;;
62941;SDS011;49042;47.318;19.874;2023-03-03T23:28:55;48.67;;;24.50;;
62941;SDS011;49042;47.318;19.874;2023-03-03T23:31:57;50.80;;;23.55;;
62941;SDS011;49042;47.318;19.874;2023-03-03T23:34:59;45.08;;;25.23;;
62941;SDS011;49042;47.318;19.874;2023-03-03T23:38:00;52.83;;;26.08;;
62941;SDS011;49042;47.318;19.874;2023-03-03T23:41:02;55.17;;;26.92;;
62941;SDS011;49042;47.318;19.874;2023-03-03T23:44:04;52.50;;;26.92;;
62941;SDS011;49042;47.318;19.874;2023-03-03T23:47:06;265.27;;;108.12;;
62941;SDS011;49042;47.318;19.874;2023-03-03T23:50:09;278.90;;;133.30;;
62941;SDS011;49042;47.318;19.874;2023-03-03T23:53:12;214.15;;;107.55;;
62941;SDS011;49042;47.318;19.874;2023-03-03T23:56:14;70.47;;;35.90;;
62941;SDS011;49042;47.318;19.874;2023-03-03T23:59:15;55.08;;;27.37;;
